createdAt,value
2019-05-18T00:00:26.265Z,990.69
2019-05-18T00:01:26.413Z,990.59
2019-05-18T00:02:26.616Z,990.59
2019-05-18T00:03:26.788Z,990.58
2019-05-18T00:04:26.972Z,990.61
2019-05-18T00:05:27.148Z,990.72
2019-05-18T00:06:27.365Z,990.66
2019-05-18T00:07:27.574Z,990.61
2019-05-18T00:08:27.754Z,990.66
2019-05-18T00:09:28.586Z,990.67
2019-05-18T00:10:28.147Z,990.64
2019-05-18T00:11:28.341Z,990.64
2019-05-18T00:12:28.504Z,990.62
2019-05-18T00:13:28.721Z,990.63
2019-05-18T00:14:29.603Z,990.59
2019-05-18T00:15:28.990Z,990.64
2019-05-18T00:16:30.088Z,990.64
2019-05-18T00:17:29.411Z,990.63
2019-05-18T00:18:29.526Z,990.65
2019-05-18T00:19:29.747Z,990.71
2019-05-18T00:20:29.998Z,990.72
2019-05-18T00:21:30.184Z,990.65
2019-05-18T00:22:30.363Z,990.68
2019-05-18T00:23:30.556Z,990.66
2019-05-18T00:24:30.742Z,990.65
2019-05-18T00:25:30.955Z,990.67
2019-05-18T00:26:32.084Z,990.62
2019-05-18T00:27:31.356Z,990.67
2019-05-18T00:28:31.545Z,990.70
2019-05-18T00:29:32.589Z,990.65
2019-05-18T00:30:31.901Z,990.65
2019-05-18T00:31:32.020Z,990.67
2019-05-18T00:32:32.229Z,990.63
2019-05-18T00:33:32.427Z,990.69
2019-05-18T00:34:32.633Z,990.72
2019-05-18T00:35:33.599Z,990.66
2019-05-18T00:36:33.018Z,990.69
2019-05-18T00:37:34.166Z,990.68
2019-05-18T00:38:33.303Z,990.71
2019-05-18T00:39:33.499Z,990.70
2019-05-18T00:40:33.679Z,990.65
2019-05-18T00:41:33.886Z,990.69
2019-05-18T00:42:34.065Z,990.68
2019-05-18T00:43:34.244Z,990.71
2019-05-18T00:44:34.420Z,990.66
2019-05-18T00:45:34.607Z,990.66
2019-05-18T00:46:34.810Z,990.59
2019-05-18T00:47:41.530Z,990.57
2019-05-18T00:48:37.163Z,990.59
2019-05-18T00:49:35.255Z,990.56
2019-05-18T00:50:35.407Z,990.56
2019-05-18T00:51:35.607Z,990.53
2019-05-18T00:52:35.770Z,990.57
2019-05-18T00:53:35.942Z,990.59
2019-05-18T00:54:36.126Z,990.59
2019-05-18T00:55:36.306Z,990.56
2019-05-18T00:56:36.601Z,990.57
2019-05-18T00:57:36.628Z,990.60
2019-05-18T00:58:36.805Z,990.50
2019-05-18T00:59:37.589Z,990.51
2019-05-18T01:00:37.097Z,990.51
2019-05-18T01:01:38.098Z,990.51
2019-05-18T01:02:37.493Z,990.48
2019-05-18T01:03:37.639Z,990.50
2019-05-18T01:04:37.781Z,990.45
2019-05-18T01:05:38.338Z,990.53
2019-05-18T01:06:39.206Z,990.50
2019-05-18T01:07:38.363Z,990.50
2019-05-18T01:08:38.524Z,990.47
2019-05-18T01:09:38.686Z,990.48
2019-05-18T01:10:38.822Z,990.46
2019-05-18T01:11:38.994Z,990.43
2019-05-18T01:12:39.193Z,990.45
2019-05-18T01:13:39.343Z,990.46
2019-05-18T01:14:39.501Z,990.42
2019-05-18T01:15:39.648Z,990.41
2019-05-18T01:16:40.598Z,990.39
2019-05-18T01:17:40.104Z,990.40
2019-05-18T01:18:40.114Z,990.43
2019-05-18T01:19:40.256Z,990.41
2019-05-18T01:20:40.405Z,990.43
2019-05-18T01:21:40.510Z,990.34
2019-05-18T01:22:40.701Z,990.39
2019-05-18T01:23:40.866Z,990.34
2019-05-18T01:24:41.022Z,990.34
2019-05-18T01:25:41.134Z,990.32
2019-05-18T01:26:41.280Z,990.28
2019-05-18T01:27:41.386Z,990.32
2019-05-18T01:28:41.624Z,990.34
2019-05-18T01:29:41.739Z,990.34
2019-05-18T01:30:41.975Z,990.32
2019-05-18T01:31:42.203Z,990.37
2019-05-18T01:32:42.449Z,990.40
2019-05-18T01:33:42.603Z,990.36
2019-05-18T01:34:43.724Z,990.47
2019-05-18T01:35:43.956Z,990.48
2019-05-18T01:36:43.165Z,990.49
2019-05-18T01:37:43.298Z,990.46
2019-05-18T01:38:43.574Z,990.45
2019-05-18T01:39:43.712Z,990.38
2019-05-18T01:40:43.859Z,990.40
2019-05-18T01:41:43.995Z,990.42
2019-05-18T01:42:44.128Z,990.44
2019-05-18T01:43:44.309Z,990.45
2019-05-18T01:44:44.455Z,990.50
2019-05-18T01:45:44.660Z,990.47
2019-05-18T01:46:44.811Z,990.43
2019-05-18T01:47:45.007Z,990.38
2019-05-18T01:48:45.157Z,990.39
2019-05-18T01:49:46.127Z,990.37
2019-05-18T01:50:45.521Z,990.37
2019-05-18T01:51:45.689Z,990.41
2019-05-18T01:52:45.845Z,990.36
2019-05-18T01:53:46.002Z,990.38
2019-05-18T01:54:47.113Z,990.31
2019-05-18T01:55:46.381Z,990.33
2019-05-18T01:56:46.551Z,990.28
2019-05-18T01:57:46.701Z,990.32
2019-05-18T01:58:46.837Z,990.36
2019-05-18T01:59:46.977Z,990.38
2019-05-18T02:00:47.150Z,990.42
2019-05-18T02:01:47.333Z,990.38
2019-05-18T02:02:47.461Z,990.39
2019-05-18T02:03:47.598Z,990.42
2019-05-18T02:04:47.728Z,990.39
2019-05-18T02:05:47.871Z,990.39
2019-05-18T02:06:48.098Z,990.37
2019-05-18T02:07:48.231Z,990.33
2019-05-18T02:08:48.377Z,990.45
2019-05-18T02:09:48.548Z,990.40
2019-05-18T02:10:48.668Z,990.32
2019-05-18T02:11:48.916Z,990.33
2019-05-18T02:12:49.069Z,990.35
2019-05-18T02:13:49.202Z,990.29
2019-05-18T02:14:49.359Z,990.24
2019-05-18T02:15:49.499Z,990.29
2019-05-18T02:16:50.603Z,990.27
2019-05-18T02:17:49.845Z,990.24
2019-05-18T02:18:49.978Z,990.27
2019-05-18T02:19:51.115Z,990.25
2019-05-18T02:20:50.293Z,990.24
2019-05-18T02:21:50.449Z,990.27
2019-05-18T02:22:50.593Z,990.26
2019-05-18T02:23:50.758Z,990.29
2019-05-18T02:24:50.926Z,990.21
2019-05-18T02:25:51.099Z,990.24
2019-05-18T02:26:51.227Z,990.20
2019-05-18T02:27:51.404Z,990.25
2019-05-18T02:28:51.581Z,990.25
2019-05-18T02:29:51.753Z,990.32
2019-05-18T02:30:51.966Z,990.24
2019-05-18T02:31:52.124Z,990.24
2019-05-18T02:32:53.111Z,990.23
2019-05-18T02:33:52.521Z,990.29
2019-05-18T02:34:52.712Z,990.26
2019-05-18T02:35:52.908Z,990.30
2019-05-18T02:36:53.090Z,990.24
2019-05-18T02:37:53.244Z,990.26
2019-05-18T02:38:53.406Z,990.25
2019-05-18T02:39:53.559Z,990.31
2019-05-18T02:40:54.115Z,990.29
2019-05-18T02:41:53.896Z,990.30
2019-05-18T02:42:54.058Z,990.32
2019-05-18T02:43:54.235Z,990.25
2019-05-18T02:44:54.449Z,990.29
2019-05-18T02:45:54.625Z,990.27
2019-05-18T02:46:54.791Z,990.24
2019-05-18T02:47:55.602Z,990.24
2019-05-18T02:48:56.103Z,990.25
2019-05-18T02:49:55.402Z,990.24
2019-05-18T02:50:55.561Z,990.24
2019-05-18T02:51:55.755Z,990.19
2019-05-18T02:52:55.949Z,990.22
2019-05-18T02:53:56.128Z,990.25
2019-05-18T02:54:56.305Z,990.24
2019-05-18T02:55:56.515Z,990.18
2019-05-18T02:56:57.130Z,990.23
2019-05-18T02:57:56.933Z,990.16
2019-05-18T02:58:57.110Z,990.12
2019-05-18T02:59:57.321Z,990.16
2019-05-18T03:00:57.538Z,990.17
2019-05-18T03:01:57.757Z,990.13
2019-05-18T03:02:57.936Z,990.10
2019-05-18T03:03:58.111Z,990.10
2019-05-18T03:04:58.284Z,990.08
2019-05-18T03:05:58.450Z,990.10
2019-05-18T03:06:58.621Z,990.08
2019-05-18T03:07:58.809Z,990.06
2019-05-18T03:08:58.996Z,990.08
2019-05-18T03:09:59.169Z,990.05
2019-05-18T03:10:59.323Z,990.06
2019-05-18T03:11:59.478Z,990.06
2019-05-18T03:13:00.661Z,990.08
2019-05-18T03:13:59.807Z,990.05
2019-05-18T03:15:00.006Z,990.02
2019-05-18T03:16:01.118Z,990.02
2019-05-18T03:17:00.385Z,990.00
2019-05-18T03:18:00.583Z,990.06
2019-05-18T03:19:08.220Z,990.07
2019-05-18T03:20:02.907Z,990.02
2019-05-18T03:21:01.026Z,990.05
2019-05-18T03:22:01.312Z,990.01
2019-05-18T03:23:01.428Z,989.98
2019-05-18T03:24:01.594Z,989.98
2019-05-18T03:25:02.119Z,989.98
2019-05-18T03:26:01.885Z,989.96
2019-05-18T03:27:02.061Z,989.99
2019-05-18T03:28:02.640Z,989.96
2019-05-18T03:29:02.438Z,989.99
2019-05-18T03:30:02.597Z,990.02
2019-05-18T03:31:02.756Z,989.99
2019-05-18T03:32:03.962Z,989.96
2019-05-18T03:33:03.111Z,989.96
2019-05-18T03:34:04.102Z,989.96
2019-05-18T03:35:04.395Z,989.97
2019-05-18T03:36:03.554Z,989.96
2019-05-18T03:37:03.727Z,989.99
2019-05-18T03:38:03.923Z,990.00
2019-05-18T03:39:04.080Z,990.00
2019-05-18T03:40:04.235Z,990.00
2019-05-18T03:41:04.431Z,989.98
2019-05-18T03:42:04.616Z,989.98
2019-05-18T03:43:04.826Z,989.94
2019-05-18T03:44:05.009Z,990.03
2019-05-18T03:45:06.116Z,989.99
2019-05-18T03:46:05.385Z,990.02
2019-05-18T03:47:06.125Z,990.05
2019-05-18T03:48:05.769Z,990.04
2019-05-18T03:49:05.941Z,990.08
2019-05-18T03:50:06.065Z,990.08
2019-05-18T03:51:06.266Z,990.08
2019-05-18T03:52:06.417Z,990.04
2019-05-18T03:53:06.540Z,990.02
2019-05-18T03:54:06.704Z,990.00
2019-05-18T03:55:06.839Z,990.07
2019-05-18T03:56:06.985Z,990.07
2019-05-18T03:57:07.137Z,990.02
2019-05-18T03:58:07.298Z,990.01
2019-05-18T03:59:07.464Z,990.03
2019-05-18T04:00:07.616Z,990.07
2019-05-18T04:01:08.787Z,990.03
2019-05-18T04:02:08.625Z,990.04
2019-05-18T04:03:08.235Z,990.02
2019-05-18T04:04:08.363Z,990.05
2019-05-18T04:05:08.552Z,990.04
2019-05-18T04:06:08.681Z,990.01
2019-05-18T04:07:08.910Z,989.94
2019-05-18T04:08:10.122Z,989.98
2019-05-18T04:09:09.338Z,989.92
2019-05-18T04:10:09.559Z,989.96
2019-05-18T04:11:09.692Z,990.00
2019-05-18T04:12:09.898Z,990.02
2019-05-18T04:13:10.143Z,990.00
2019-05-18T04:14:10.368Z,990.01
2019-05-18T04:15:10.646Z,990.06
2019-05-18T04:16:10.735Z,989.96
2019-05-18T04:17:11.983Z,990.00
2019-05-18T04:18:11.127Z,990.01
2019-05-18T04:19:11.276Z,990.02
2019-05-18T04:20:11.505Z,989.99
2019-05-18T04:21:11.667Z,990.00
2019-05-18T04:22:11.845Z,989.98
2019-05-18T04:23:11.992Z,989.97
2019-05-18T04:24:12.147Z,989.92
2019-05-18T04:25:12.273Z,990.00
2019-05-18T04:26:12.427Z,989.92
2019-05-18T04:27:13.119Z,989.92
2019-05-18T04:28:12.713Z,989.91
2019-05-18T04:29:12.861Z,989.94
2019-05-18T04:30:13.008Z,989.91
2019-05-18T04:31:13.209Z,989.88
2019-05-18T04:32:13.388Z,989.95
2019-05-18T04:33:13.522Z,990.01
2019-05-18T04:34:13.692Z,989.99
2019-05-18T04:35:13.890Z,989.99
2019-05-18T04:36:14.124Z,990.01
2019-05-18T04:37:14.318Z,989.94
2019-05-18T04:38:15.133Z,989.94
2019-05-18T04:39:14.695Z,989.94
2019-05-18T04:40:14.859Z,989.95
2019-05-18T04:41:15.065Z,989.96
2019-05-18T04:42:15.279Z,989.93
2019-05-18T04:43:15.465Z,989.92
2019-05-18T04:44:15.638Z,989.95
2019-05-18T04:45:15.881Z,989.96
2019-05-18T04:46:17.053Z,989.97
2019-05-18T04:47:16.230Z,989.93
2019-05-18T04:48:16.409Z,989.98
2019-05-18T04:49:16.608Z,989.98
2019-05-18T04:50:16.816Z,990.02
2019-05-18T04:51:16.969Z,990.00
2019-05-18T04:52:17.135Z,990.00
2019-05-18T04:53:17.288Z,990.02
2019-05-18T04:54:17.445Z,990.03
2019-05-18T04:55:17.626Z,990.00
2019-05-18T04:56:17.797Z,990.02
2019-05-18T04:57:18.979Z,990.04
2019-05-18T04:58:18.091Z,990.04
2019-05-18T04:59:18.246Z,990.01
2019-05-18T05:00:18.387Z,990.07
2019-05-18T05:01:18.539Z,990.06
2019-05-18T05:02:18.703Z,990.08
2019-05-18T05:03:18.875Z,990.06
2019-05-18T05:04:19.055Z,990.08
2019-05-18T05:05:19.213Z,990.02
2019-05-18T05:06:19.349Z,990.08
2019-05-18T05:07:19.496Z,990.09
2019-05-18T05:08:19.653Z,990.12
2019-05-18T05:09:19.805Z,990.10
2019-05-18T05:10:19.937Z,990.14
2019-05-18T05:11:20.096Z,990.19
2019-05-18T05:12:21.120Z,990.14
2019-05-18T05:13:20.639Z,990.10
2019-05-18T05:14:20.660Z,990.19
2019-05-18T05:15:20.809Z,990.15
2019-05-18T05:16:20.978Z,990.13
2019-05-18T05:17:21.139Z,990.06
2019-05-18T05:18:21.349Z,990.10
2019-05-18T05:19:21.506Z,990.07
2019-05-18T05:20:22.642Z,990.07
2019-05-18T05:21:21.875Z,990.05
2019-05-18T05:22:22.623Z,990.06
2019-05-18T05:23:22.317Z,990.05
2019-05-18T05:24:22.476Z,990.10
2019-05-18T05:25:22.620Z,990.09
2019-05-18T05:26:22.769Z,990.06
2019-05-18T05:27:22.944Z,990.11
2019-05-18T05:28:23.141Z,990.06
2019-05-18T05:29:23.657Z,990.09
2019-05-18T05:30:24.127Z,990.08
2019-05-18T05:31:23.644Z,990.10
2019-05-18T05:32:23.818Z,990.04
2019-05-18T05:33:23.975Z,990.04
2019-05-18T05:34:24.654Z,990.02
2019-05-18T05:35:24.390Z,990.06
2019-05-18T05:36:24.529Z,990.08
2019-05-18T05:37:24.679Z,990.03
2019-05-18T05:38:24.923Z,990.06
2019-05-18T05:39:25.077Z,990.01
2019-05-18T05:40:25.269Z,990.02
2019-05-18T05:41:25.433Z,990.04
2019-05-18T05:42:25.606Z,990.09
2019-05-18T05:43:25.763Z,989.95
2019-05-18T05:44:25.924Z,989.96
2019-05-18T05:45:26.149Z,989.96
2019-05-18T05:46:26.207Z,989.93
2019-05-18T05:47:27.140Z,989.93
2019-05-18T05:48:26.510Z,990.00
2019-05-18T05:49:26.637Z,989.96
2019-05-18T05:50:35.374Z,989.86
2019-05-18T05:51:29.147Z,989.90
2019-05-18T05:52:27.102Z,989.87
2019-05-18T05:53:27.290Z,989.85
2019-05-18T05:54:28.134Z,989.84
2019-05-18T05:55:27.643Z,989.90
2019-05-18T05:56:27.807Z,989.94
2019-05-18T05:57:27.988Z,989.91
2019-05-18T05:58:28.125Z,989.94
2019-05-18T05:59:28.296Z,989.98
2019-05-18T06:00:28.449Z,989.91
2019-05-18T06:01:28.638Z,989.93
2019-05-18T06:02:28.796Z,989.89
2019-05-18T06:03:28.986Z,989.93
2019-05-18T06:04:29.157Z,989.96
2019-05-18T06:05:29.288Z,989.86
2019-05-18T06:06:29.479Z,989.90
2019-05-18T06:07:29.730Z,989.90
2019-05-18T06:08:29.893Z,989.93
2019-05-18T06:09:30.040Z,989.84
2019-05-18T06:10:30.207Z,989.85
2019-05-18T06:11:31.142Z,989.88
2019-05-18T06:12:30.576Z,989.84
2019-05-18T06:13:30.767Z,989.80
2019-05-18T06:14:30.919Z,989.80
2019-05-18T06:15:31.093Z,989.83
2019-05-18T06:16:31.268Z,989.85
2019-05-18T06:17:31.480Z,989.84
2019-05-18T06:18:31.642Z,989.85
2019-05-18T06:19:31.826Z,989.89
2019-05-18T06:20:32.017Z,989.94
2019-05-18T06:21:32.199Z,989.91
2019-05-18T06:22:32.427Z,989.92
2019-05-18T06:23:32.595Z,989.93
2019-05-18T06:24:33.630Z,989.96
2019-05-18T06:25:34.498Z,989.95
2019-05-18T06:26:34.135Z,989.89
2019-05-18T06:27:33.272Z,989.89
2019-05-18T06:28:33.434Z,989.89
2019-05-18T06:29:33.628Z,989.88
2019-05-18T06:30:33.786Z,989.88
2019-05-18T06:31:33.953Z,989.89
2019-05-18T06:32:34.081Z,989.83
2019-05-18T06:33:34.242Z,989.89
2019-05-18T06:34:34.397Z,989.85
2019-05-18T06:35:34.543Z,989.86
2019-05-18T06:36:34.707Z,989.86
2019-05-18T06:37:34.854Z,989.83
2019-05-18T06:38:35.029Z,989.86
2019-05-18T06:39:35.145Z,989.81
2019-05-18T06:40:36.143Z,989.82
2019-05-18T06:41:35.511Z,989.79
2019-05-18T06:42:35.696Z,989.84
2019-05-18T06:43:35.890Z,989.80
2019-05-18T06:44:36.047Z,989.86
2019-05-18T06:45:36.206Z,989.85
2019-05-18T06:46:36.379Z,989.88
2019-05-18T06:47:36.521Z,989.87
2019-05-18T06:48:36.724Z,989.88
2019-05-18T06:49:36.869Z,989.87
2019-05-18T06:50:37.645Z,989.83
2019-05-18T06:51:37.277Z,989.81
2019-05-18T06:52:37.412Z,989.76
2019-05-18T06:53:37.596Z,989.79
2019-05-18T06:54:37.752Z,989.80
2019-05-18T06:55:37.922Z,989.77
2019-05-18T06:56:38.076Z,989.76
2019-05-18T06:57:38.238Z,989.74
2019-05-18T06:58:38.419Z,989.70
2019-05-18T06:59:38.609Z,989.74
2019-05-18T07:00:38.767Z,989.71
2019-05-18T07:01:39.651Z,989.73
2019-05-18T07:02:40.153Z,989.75
2019-05-18T07:03:39.294Z,989.75
2019-05-18T07:04:39.502Z,989.78
2019-05-18T07:05:39.669Z,989.67
2019-05-18T07:06:39.847Z,989.64
2019-05-18T07:07:40.655Z,989.68
2019-05-18T07:08:41.166Z,989.68
2019-05-18T07:09:41.150Z,989.69
2019-05-18T07:10:40.575Z,989.65
2019-05-18T07:11:40.737Z,989.70
2019-05-18T07:12:40.893Z,989.61
2019-05-18T07:13:41.057Z,989.60
2019-05-18T07:14:41.243Z,989.64
2019-05-18T07:15:41.665Z,989.63
2019-05-18T07:16:41.545Z,989.54
2019-05-18T07:17:41.687Z,989.61
2019-05-18T07:18:41.839Z,989.55
2019-05-18T07:19:41.980Z,989.54
2019-05-18T07:20:42.166Z,989.57
2019-05-18T07:21:43.157Z,989.54
2019-05-18T07:22:42.511Z,989.56
2019-05-18T07:23:43.947Z,989.57
2019-05-18T07:24:43.925Z,989.53
2019-05-18T07:25:43.038Z,989.53
2019-05-18T07:26:43.167Z,989.53
2019-05-18T07:27:44.181Z,989.52
2019-05-18T07:28:43.546Z,989.52
2019-05-18T07:29:43.734Z,989.55
2019-05-18T07:30:43.889Z,989.55
2019-05-18T07:31:44.050Z,989.47
2019-05-18T07:32:44.211Z,989.48
2019-05-18T07:33:44.364Z,989.51
2019-05-18T07:34:44.572Z,989.40
2019-05-18T07:35:44.734Z,989.43
2019-05-18T07:36:44.925Z,989.43
2019-05-18T07:37:45.695Z,989.37
2019-05-18T07:38:45.210Z,989.35
2019-05-18T07:39:45.381Z,989.36
2019-05-18T07:40:45.672Z,989.38
2019-05-18T07:41:47.363Z,989.37
2019-05-18T07:42:45.907Z,989.31
2019-05-18T07:43:46.103Z,989.33
2019-05-18T07:44:47.159Z,989.35
2019-05-18T07:45:46.442Z,989.28
2019-05-18T07:46:46.596Z,989.33
2019-05-18T07:47:47.686Z,989.32
2019-05-18T07:48:46.977Z,989.37
2019-05-18T07:49:47.158Z,989.35
2019-05-18T07:50:47.350Z,989.38
2019-05-18T07:51:47.520Z,989.40
2019-05-18T07:52:47.626Z,989.36
2019-05-18T07:53:48.928Z,989.35
2019-05-18T07:54:48.690Z,989.38
2019-05-18T07:55:48.190Z,989.33
2019-05-18T07:56:48.982Z,989.36
2019-05-18T07:57:48.492Z,989.25
2019-05-18T07:58:48.636Z,989.23
2019-05-18T07:59:48.816Z,989.28
2019-05-18T08:00:49.012Z,989.27
2019-05-18T08:01:49.159Z,989.24
2019-05-18T08:02:49.337Z,989.26
2019-05-18T08:03:49.520Z,989.27
2019-05-18T08:04:49.675Z,989.27
2019-05-18T08:05:49.893Z,989.27
2019-05-18T08:06:50.185Z,989.29
2019-05-18T08:07:51.181Z,989.25
2019-05-18T08:08:50.454Z,989.23
2019-05-18T08:09:51.165Z,989.29
2019-05-18T08:10:50.829Z,989.20
2019-05-18T08:11:51.049Z,989.20
2019-05-18T08:12:51.214Z,989.21
2019-05-18T08:13:51.363Z,989.20
2019-05-18T08:14:52.550Z,989.17
2019-05-18T08:15:51.694Z,989.19
2019-05-18T08:16:51.901Z,989.22
2019-05-18T08:17:52.098Z,989.14
2019-05-18T08:18:52.308Z,989.15
2019-05-18T08:19:52.467Z,989.16
2019-05-18T08:20:52.645Z,989.18
2019-05-18T08:21:53.823Z,989.10
2019-05-18T08:22:54.047Z,989.16
2019-05-18T08:23:53.213Z,989.14
2019-05-18T08:24:54.190Z,989.21
2019-05-18T08:25:53.584Z,989.20
2019-05-18T08:26:53.765Z,989.11
2019-05-18T08:27:53.929Z,989.22
2019-05-18T08:28:54.140Z,989.14
2019-05-18T08:29:54.328Z,989.23
2019-05-18T08:30:54.520Z,989.22
2019-05-18T08:31:54.676Z,989.17
2019-05-18T08:32:54.883Z,989.21
2019-05-18T08:33:55.072Z,989.16
2019-05-18T08:34:55.276Z,989.19
2019-05-18T08:35:55.478Z,989.21
2019-05-18T08:36:55.670Z,989.20
2019-05-18T08:37:55.850Z,989.23
2019-05-18T08:38:56.025Z,989.16
2019-05-18T08:39:56.215Z,989.18
2019-05-18T08:40:56.408Z,989.15
2019-05-18T08:41:56.565Z,989.14
2019-05-18T08:42:56.715Z,989.04
2019-05-18T08:43:56.907Z,989.11
2019-05-18T08:44:57.097Z,989.09
2019-05-18T08:45:57.264Z,989.12
2019-05-18T08:46:57.438Z,989.08
2019-05-18T08:47:57.609Z,989.11
2019-05-18T08:48:57.841Z,989.09
2019-05-18T08:49:58.019Z,989.09
2019-05-18T08:50:58.259Z,989.13
2019-05-18T08:52:07.911Z,989.05
2019-05-18T08:53:00.631Z,989.09
2019-05-18T08:53:58.771Z,989.00
2019-05-18T08:54:58.987Z,988.99
2019-05-18T08:55:59.194Z,989.08
2019-05-18T08:56:59.427Z,989.00
2019-05-18T08:57:59.533Z,988.99
2019-05-18T08:58:59.748Z,989.01
2019-05-18T09:00:00.588Z,988.97
2019-05-18T09:01:00.189Z,989.00
2019-05-18T09:02:00.397Z,988.98
2019-05-18T09:03:00.607Z,989.06
2019-05-18T09:04:00.837Z,989.00
2019-05-18T09:05:04.654Z,989.01
2019-05-18T09:06:01.190Z,989.00
2019-05-18T09:07:01.401Z,989.00
2019-05-18T09:08:01.610Z,988.99
2019-05-18T09:09:01.804Z,989.00
2019-05-18T09:10:01.990Z,988.89
2019-05-18T09:11:02.215Z,988.90
2019-05-18T09:12:02.368Z,988.91
2019-05-18T09:13:02.536Z,988.87
2019-05-18T09:14:02.605Z,988.90
2019-05-18T09:15:02.752Z,988.94
2019-05-18T09:16:02.941Z,988.93
2019-05-18T09:17:03.092Z,988.88
2019-05-18T09:18:04.970Z,988.90
2019-05-18T09:19:04.419Z,988.93
2019-05-18T09:20:03.602Z,988.95
2019-05-18T09:21:03.768Z,988.88
2019-05-18T09:22:03.956Z,988.93
2019-05-18T09:23:04.143Z,988.86
2019-05-18T09:24:04.293Z,988.92
2019-05-18T09:25:04.441Z,988.91
2019-05-18T09:26:04.589Z,988.95
2019-05-18T09:27:04.798Z,988.85
2019-05-18T09:28:04.983Z,988.90
2019-05-18T09:29:05.144Z,988.88
2019-05-18T09:30:05.335Z,988.90
2019-05-18T09:31:05.542Z,988.86
2019-05-18T09:32:05.777Z,988.88
2019-05-18T09:33:05.881Z,988.89
2019-05-18T09:34:05.989Z,988.90
2019-05-18T09:35:06.195Z,988.88
2019-05-18T09:36:06.384Z,988.88
2019-05-18T09:37:06.560Z,988.88
2019-05-18T09:38:06.710Z,988.91
2019-05-18T09:39:06.894Z,988.90
2019-05-18T09:40:07.081Z,988.82
2019-05-18T09:41:07.276Z,988.84
2019-05-18T09:42:07.454Z,988.88
2019-05-18T09:43:07.637Z,988.85
2019-05-18T09:44:07.846Z,988.76
2019-05-18T09:45:08.018Z,988.80
2019-05-18T09:46:08.391Z,988.78
2019-05-18T09:47:08.477Z,988.80
2019-05-18T09:48:08.669Z,988.81
2019-05-18T09:49:08.846Z,988.85
2019-05-18T09:50:09.015Z,988.83
2019-05-18T09:51:09.193Z,988.80
2019-05-18T09:52:09.396Z,988.83
2019-05-18T09:53:09.583Z,988.78
2019-05-18T09:54:09.742Z,988.85
2019-05-18T09:55:09.911Z,988.83
2019-05-18T09:56:10.095Z,988.79
2019-05-18T09:57:10.258Z,988.82
2019-05-18T09:58:10.455Z,988.78
2019-05-18T09:59:10.631Z,988.81
2019-05-18T10:00:10.787Z,988.83
2019-05-18T10:01:10.946Z,988.75
2019-05-18T10:02:11.103Z,988.79
2019-05-18T10:03:11.292Z,988.74
2019-05-18T10:04:11.442Z,988.77
2019-05-18T10:05:11.607Z,988.79
2019-05-18T10:06:11.761Z,988.78
2019-05-18T10:07:11.930Z,988.73
2019-05-18T10:08:12.120Z,988.67
2019-05-18T10:09:12.295Z,988.75
2019-05-18T10:10:12.460Z,988.72
2019-05-18T10:11:12.633Z,988.78
2019-05-18T10:12:12.813Z,988.78
2019-05-18T10:13:12.988Z,988.83
2019-05-18T10:14:13.179Z,988.80
2019-05-18T10:15:13.376Z,988.82
2019-05-18T10:16:13.565Z,988.75
2019-05-18T10:17:13.727Z,988.74
2019-05-18T10:18:13.896Z,988.78
2019-05-18T10:19:14.110Z,988.70
2019-05-18T10:20:14.275Z,988.69
2019-05-18T10:21:14.475Z,988.63
2019-05-18T10:22:14.700Z,988.61
2019-05-18T10:23:14.888Z,988.67
2019-05-18T10:24:15.059Z,988.65
2019-05-18T10:25:15.273Z,988.62
2019-05-18T10:26:15.475Z,988.65
2019-05-18T10:27:15.712Z,988.66
2019-05-18T10:28:15.884Z,988.55
2019-05-18T10:29:16.093Z,988.57
2019-05-18T10:30:16.255Z,988.60
2019-05-18T10:31:16.431Z,988.59
2019-05-18T10:32:16.613Z,988.52
2019-05-18T10:33:16.768Z,988.58
2019-05-18T10:34:16.972Z,988.57
2019-05-18T10:35:17.145Z,988.60
2019-05-18T10:36:17.324Z,988.55
2019-05-18T10:37:17.503Z,988.61
2019-05-18T10:38:17.712Z,988.61
2019-05-18T10:39:17.923Z,988.62
2019-05-18T10:40:18.094Z,988.71
2019-05-18T10:41:18.275Z,988.74
2019-05-18T10:42:18.427Z,988.64
2019-05-18T10:43:18.642Z,988.66
2019-05-18T10:44:18.802Z,988.73
2019-05-18T10:45:18.968Z,988.68
2019-05-18T10:46:19.166Z,988.66
2019-05-18T10:47:19.347Z,988.67
2019-05-18T10:48:19.544Z,988.71
2019-05-18T10:49:19.745Z,988.69
2019-05-18T10:50:19.935Z,988.68
2019-05-18T10:51:20.112Z,988.70
2019-05-18T10:52:21.318Z,988.68
2019-05-18T10:53:28.913Z,988.63
2019-05-18T10:54:22.614Z,988.69
2019-05-18T10:55:20.740Z,988.63
2019-05-18T10:56:20.969Z,988.61
2019-05-18T10:57:21.156Z,988.54
2019-05-18T10:58:21.345Z,988.60
2019-05-18T10:59:21.528Z,988.58
2019-05-18T11:00:21.709Z,988.49
2019-05-18T11:01:21.902Z,988.47
2019-05-18T11:02:22.162Z,988.52
2019-05-18T11:03:22.213Z,988.51
2019-05-18T11:04:22.390Z,988.47
2019-05-18T11:05:22.553Z,988.49
2019-05-18T11:06:22.711Z,988.54
2019-05-18T11:07:22.918Z,988.50
2019-05-18T11:08:23.052Z,988.54
2019-05-18T11:09:23.216Z,988.45
2019-05-18T11:10:23.382Z,988.47
2019-05-18T11:11:23.522Z,988.45
2019-05-18T11:12:24.680Z,988.53
2019-05-18T11:13:23.839Z,988.47
2019-05-18T11:14:24.007Z,988.47
2019-05-18T11:15:24.395Z,988.54
2019-05-18T11:16:24.413Z,988.50
2019-05-18T11:17:24.604Z,988.51
2019-05-18T11:18:24.770Z,988.47
2019-05-18T11:19:24.950Z,988.43
2019-05-18T11:20:25.139Z,988.34
2019-05-18T11:21:25.324Z,988.37
2019-05-18T11:22:25.545Z,988.33
2019-05-18T11:23:25.734Z,988.28
2019-05-18T11:24:25.890Z,988.31
2019-05-18T11:25:26.050Z,988.28
2019-05-18T11:26:26.222Z,988.25
2019-05-18T11:27:26.370Z,988.17
2019-05-18T11:28:26.529Z,988.18
2019-05-18T11:29:26.728Z,988.16
2019-05-18T11:30:26.907Z,988.16
2019-05-18T11:31:27.068Z,988.21
2019-05-18T11:32:27.238Z,988.19
2019-05-18T11:33:27.375Z,988.13
2019-05-18T11:34:27.538Z,988.19
2019-05-18T11:35:27.675Z,988.20
2019-05-18T11:36:27.823Z,988.21
2019-05-18T11:37:27.970Z,988.20
2019-05-18T11:38:28.129Z,988.14
2019-05-18T11:39:28.284Z,988.20
2019-05-18T11:40:28.472Z,988.24
2019-05-18T11:41:28.607Z,988.18
2019-05-18T11:42:28.748Z,988.28
2019-05-18T11:43:28.951Z,988.24
2019-05-18T11:44:29.135Z,988.31
2019-05-18T11:45:29.314Z,988.18
2019-05-18T11:46:29.468Z,988.26
2019-05-18T11:47:29.705Z,988.31
2019-05-18T11:48:29.791Z,988.20
2019-05-18T11:49:29.948Z,988.29
2019-05-18T11:50:30.095Z,988.20
2019-05-18T11:51:30.280Z,988.16
2019-05-18T11:52:30.501Z,988.17
2019-05-18T11:53:30.713Z,988.16
2019-05-18T11:54:30.905Z,988.13
2019-05-18T11:55:31.090Z,988.24
2019-05-18T11:56:31.273Z,988.13
2019-05-18T11:57:31.481Z,988.11
2019-05-18T11:58:31.701Z,988.12
2019-05-18T11:59:31.889Z,988.16
2019-05-18T12:00:32.071Z,988.13
2019-05-18T12:01:32.297Z,988.14
2019-05-18T12:02:32.513Z,988.12
2019-05-18T12:03:32.704Z,988.07
2019-05-18T12:04:32.901Z,988.10
2019-05-18T12:05:33.067Z,988.14
2019-05-18T12:06:33.269Z,988.05
2019-05-18T12:07:33.457Z,988.07
2019-05-18T12:08:33.628Z,988.07
2019-05-18T12:09:33.815Z,988.08
2019-05-18T12:10:33.936Z,988.02
2019-05-18T12:11:34.130Z,988.05
2019-05-18T12:12:34.339Z,988.14
2019-05-18T12:13:34.511Z,988.12
2019-05-18T12:14:35.280Z,988.05
2019-05-18T12:15:34.827Z,988.07
2019-05-18T12:16:35.076Z,988.10
2019-05-18T12:17:35.238Z,987.98
2019-05-18T12:18:36.278Z,988.04
2019-05-18T12:19:35.525Z,987.99
2019-05-18T12:20:35.691Z,988.11
2019-05-18T12:21:36.302Z,988.05
2019-05-18T12:22:36.796Z,988.01
2019-05-18T12:23:36.200Z,988.04
2019-05-18T12:24:36.353Z,988.13
2019-05-18T12:25:36.505Z,988.09
2019-05-18T12:26:36.680Z,988.04
2019-05-18T12:27:36.897Z,988.07
2019-05-18T12:28:37.065Z,988.10
2019-05-18T12:29:37.229Z,988.07
2019-05-18T12:30:37.407Z,988.05